Main page
METAR-TAF:

METAR-TAF

Airports :

Aérodrome de Dax - Seyresse

Dax, France

latitude: 43-41N, longitude: 001-04W, elevation: 32 m

Current weather observation

The report was made 40 minutes ago, at 21:00 UTC
Calm wind
Temperature 14°C
Humidity 94%
Pressure 1015 hPa
Visibility: 5000 m

METAR: LFBY 172100Z AUTO 00000KT 5000 // ////// 14/13 Q1015

Time: 23:40 (21:40 UTC)

Forecast

The report was made 13 hours and 40 minutes ago, at 08:00 UTC
Forecast valid from 17 at 09 UTC to 17 at 18 UTC
Wind 2 kt from variable directions
Visibility: 6000 m
Overcast at a height of 1000 ft
Shallow fog
Becoming
from 17 at 10 UTC to 17 at 12 UTC
Visibility: 9000 m
Broken clouds at a height of 1500 ft

TAF: LFBY 170800Z 1709/1718 VRB02KT 6000 MIFG OVC010 BECMG 1710/1712 9000 NSW BKN015

Weather observations and forecasts of more than 4000 airports (METAR and TAF reports).

The available stations are represented by yellow and red dots on the map.

Hover mouse over dot to see the name of the station.

Then click to see weather observations and forecasts.

To change the map : click on the green buttons with a black cross to zoom in, on the green button with a dash to zoom out, or on the green arrows for adjacent maps.


METAR-TAF: